Time;durP1;ratioP1;P1;durP2;ratioP2;P2;SDS_P1;SDS_P2;PMS_P1;PMS_P2;Temp;Humidity;BMP_temperature;BMP_pressure;BME280_temperature;BME280_humidity;BME280_pressure;Samples;Min_cycle;Max_cycle;Signal;HPM_P1;HPM_P2
2023/08/14 00:00:31;;;;;;;4.22;3.83;;;;;;;22.07;82.52;95718.50;5012468;28;20253;-80
2023/08/14 00:02:57;;;;;;;5.22;4.13;;;;;;;22.13;82.59;95722.97;5026055;28;20242;-79
2023/08/14 00:05:22;;;;;;;5.03;3.88;;;;;;;22.15;82.70;95707.66;5027712;28;20186;-81
2023/08/14 00:07:47;;;;;;;3.67;3.38;;;;;;;22.15;82.93;95712.16;5013475;28;20218;-80
2023/08/14 00:10:12;;;;;;;4.72;3.70;;;;;;;22.10;82.62;95710.16;5005016;28;20718;-79
2023/08/14 00:12:38;;;;;;;4.95;3.50;;;;;;;22.12;83.03;95704.66;5024132;28;20182;-80
2023/08/14 00:15:03;;;;;;;3.85;3.33;;;;;;;22.02;83.51;95715.69;5023014;28;20644;-81
2023/08/14 00:17:29;;;;;;;4.28;3.85;;;;;;;22.03;82.79;95714.66;5019150;28;20730;-80
2023/08/14 00:19:54;;;;;;;4.78;3.85;;;;;;;22.11;82.91;95719.72;5011817;28;20714;-81
2023/08/14 00:22:19;;;;;;;3.92;3.60;;;;;;;22.05;83.24;95718.69;5029354;28;20187;-79
2023/08/14 00:24:45;;;;;;;4.47;3.60;;;;;;;22.11;82.89;95705.69;5016448;28;20182;-79
2023/08/14 00:27:10;;;;;;;3.80;3.35;;;;;;;22.07;83.31;95707.94;5013600;28;20249;-80
2023/08/14 00:29:36;;;;;;;4.50;3.47;;;;;;;22.09;83.52;95713.03;5021497;28;20232;-79
2023/08/14 00:32:02;;;;;;;5.55;3.75;;;;;;;22.13;83.31;95703.63;5025677;28;20187;-80
2023/08/14 00:34:27;;;;;;;4.43;3.63;;;;;;;22.17;82.65;95705.63;5014966;28;20559;-79
2023/08/14 00:36:52;;;;;;;7.30;4.30;;;;;;;22.16;82.83;95701.34;5025399;28;20217;-79
2023/08/14 00:39:18;;;;;;;4.22;3.83;;;;;;;22.15;83.36;95697.09;5027071;28;20734;-79
2023/08/14 00:41:43;;;;;;;5.45;3.72;;;;;;;22.17;83.05;95694.22;5016093;28;20282;-78
2023/08/14 00:44:08;;;;;;;4.80;3.88;;;;;;;22.19;82.96;95690.38;5017701;28;20264;-80
2023/08/14 00:46:34;;;;;;;4.40;4.00;;;;;;;22.23;83.50;95696.81;5013387;28;20201;-79
2023/08/14 00:49:00;;;;;;;4.10;3.70;;;;;;;22.13;84.40;95690.41;5016760;28;20191;-79
2023/08/14 00:51:25;;;;;;;5.65;4.18;;;;;;;22.11;84.43;95690.63;5002462;28;20189;-79
2023/08/14 00:53:52;;;;;;;4.78;4.35;;;;;;;22.08;84.46;95685.75;5005349;28;20190;-79
2023/08/14 00:56:18;;;;;;;6.50;3.75;;;;;;;22.09;84.63;95687.41;5023675;28;20218;-78
2023/08/14 00:58:43;;;;;;;5.20;3.92;;;;;;;22.12;84.76;95689.59;5015551;28;20191;-79
2023/08/14 01:01:09;;;;;;;4.55;3.53;;;;;;;22.00;85.19;95686.03;5029200;28;20192;-79
2023/08/14 01:03:34;;;;;;;4.78;3.65;;;;;;;21.78;85.89;95683.72;5016892;28;20661;-80
2023/08/14 01:06:00;;;;;;;6.05;3.95;;;;;;;21.77;86.10;95692.66;5015237;28;20201;-79
2023/08/14 01:08:26;;;;;;;4.00;3.58;;;;;;;21.81;86.30;95689.59;5009878;28;20245;-80
2023/08/14 01:11:08;;;;;;;6.18;4.72;;;;;;;21.91;86.19;95692.56;5023741;28;20190;-80
2023/08/14 01:13:41;;;;;;;6.00;4.22;;;;;;;21.98;85.55;95706.56;5024991;28;20183;-80
2023/08/14 01:16:13;;;;;;;4.68;4.20;;;;;;;21.97;86.68;95705.75;5029981;28;20210;-79
2023/08/14 01:18:39;;;;;;;4.93;4.35;;;;;;;21.91;87.59;95701.34;5025084;28;20324;-79
2023/08/14 01:21:16;;;;;;;6.82;4.20;;;;;;;21.90;88.83;95701.53;5016162;28;20711;-80
2023/08/14 01:23:56;;;;;;;6.13;4.43;;;;;;;21.90;89.21;95691.75;5029465;28;20237;-79
2023/08/14 01:26:22;;;;;;;5.43;4.65;;;;;;;21.96;89.48;95690.09;5027063;28;20206;-79
2023/08/14 01:28:47;;;;;;;5.35;4.82;;;;;;;21.86;90.25;95685.28;5011001;28;20683;-80
2023/08/14 01:31:13;;;;;;;5.60;5.03;;;;;;;21.84;91.17;95673.31;5020218;28;20214;-79
2023/08/14 01:33:38;;;;;;;5.03;4.60;;;;;;;21.87;91.14;95676.34;5023206;28;20594;-79
2023/08/14 01:36:33;;;;;;;6.20;4.97;;;;;;;21.78;92.07;95678.44;5012483;28;20261;-81
2023/08/14 01:38:58;;;;;;;6.72;4.68;;;;;;;21.50;94.31;95691.22;5016243;28;20288;-79
2023/08/14 01:41:28;;;;;;;7.25;5.13;;;;;;;21.40;94.42;95685.59;5028637;28;20290;-80
2023/08/14 01:43:57;;;;;;;7.03;5.15;;;;;;;21.46;94.68;95693.47;5010182;28;20187;-79
2023/08/14 01:46:23;;;;;;;5.90;5.00;;;;;;;21.47;94.37;95691.66;5028301;28;20727;-79
2023/08/14 01:48:49;;;;;;;6.13;4.78;;;;;;;21.50;94.29;95691.22;5026370;28;20195;-79
2023/08/14 01:51:15;;;;;;;9.85;5.32;;;;;;;21.37;94.46;95693.91;5023561;28;20236;-79
2023/08/14 01:53:40;;;;;;;6.03;4.63;;;;;;;21.41;93.84;95685.38;5024291;28;20186;-80
2023/08/14 01:56:06;;;;;;;7.20;5.18;;;;;;;21.30;94.65;95674.69;5003558;28;20215;-79
2023/08/14 01:58:31;;;;;;;7.90;4.85;;;;;;;21.39;93.87;95668.13;5027619;28;20186;-79
2023/08/14 02:00:56;;;;;;;7.45;5.28;;;;;;;21.34;93.28;95662.66;5031194;28;20216;-79
2023/08/14 02:03:22;;;;;;;6.60;5.00;;;;;;;21.20;94.58;95657.44;5014560;28;20186;-80
2023/08/14 02:05:47;;;;;;;6.05;5.13;;;;;;;21.19;95.25;95653.13;5013786;28;20190;-80
2023/08/14 02:08:12;;;;;;;5.90;5.05;;;;;;;21.12;95.73;95647.09;5025821;28;20186;-80
2023/08/14 02:10:38;;;;;;;6.03;4.70;;;;;;;21.17;94.94;95644.63;5006561;28;20558;-79
2023/08/14 02:13:03;;;;;;;5.63;5.13;;;;;;;20.99;96.99;95647.16;5004479;28;20277;-80
2023/08/14 02:15:28;;;;;;;5.97;5.47;;;;;;;21.00;96.98;95637.41;5011419;28;20215;-79
2023/08/14 02:17:54;;;;;;;6.43;5.28;;;;;;;20.85;98.46;95641.13;5012054;28;20214;-80
2023/08/14 02:20:19;;;;;;;5.57;5.03;;;;;;;20.76;98.93;95628.34;5014790;28;20210;-79
2023/08/14 02:22:44;;;;;;;5.22;4.72;;;;;;;21.00;96.96;95622.38;4995859;28;20562;-80
2023/08/14 02:25:10;;;;;;;5.30;4.80;;;;;;;21.02;96.36;95616.88;4997312;28;20641;-81
2023/08/14 02:27:35;;;;;;;7.13;5.22;;;;;;;21.02;95.93;95615.03;5009408;28;20711;-79
2023/08/14 02:30:00;;;;;;;5.80;4.82;;;;;;;20.83;97.21;95613.31;5022442;28;20647;-79
2023/08/14 02:32:26;;;;;;;7.18;4.97;;;;;;;20.97;96.50;95604.31;5023640;28;20190;-79
2023/08/14 02:34:52;;;;;;;5.22;4.72;;;;;;;20.79;97.69;95604.19;5035451;28;20299;-79
2023/08/14 02:37:18;;;;;;;5.57;4.85;;;;;;;20.95;96.92;95595.81;5014762;28;20239;-79
2023/08/14 02:39:44;;;;;;;5.60;5.00;;;;;;;20.91;96.09;95584.84;5012995;28;20688;-79
2023/08/14 02:42:10;;;;;;;8.98;5.28;;;;;;;20.89;96.76;95591.34;5012324;28;20317;-79
2023/08/14 02:44:36;;;;;;;5.63;4.63;;;;;;;20.90;96.86;95577.13;5027532;28;20244;-80
2023/08/14 02:47:01;;;;;;;6.03;4.70;;;;;;;20.84;96.92;95584.06;5018981;28;20615;-80
2023/08/14 02:49:27;;;;;;;5.35;4.95;;;;;;;20.65;98.41;95588.41;5019348;28;20224;-80
2023/08/14 02:51:53;;;;;;;5.50;5.00;;;;;;;20.79;97.86;95591.00;5021487;28;20191;-80
2023/08/14 02:54:18;;;;;;;5.70;5.10;;;;;;;20.69;98.00;95594.09;5017476;28;20398;-79
2023/08/14 02:56:43;;;;;;;5.10;4.18;;;;;;;20.80;96.43;95592.63;5013574;28;20210;-79
2023/08/14 02:59:09;;;;;;;5.80;4.50;;;;;;;20.73;94.81;95594.47;5011897;28;20190;-80
2023/08/14 03:01:34;;;;;;;5.15;3.67;;;;;;;20.75;93.59;95602.97;5011422;28;20607;-79
2023/08/14 03:03:59;;;;;;;4.65;3.65;;;;;;;20.65;93.46;95609.50;5029892;28;20364;-79
2023/08/14 03:06:25;;;;;;;4.10;3.70;;;;;;;20.77;91.66;95604.41;5023571;28;20230;-79
2023/08/14 03:08:50;;;;;;;4.72;3.70;;;;;;;20.70;92.43;95605.47;5022216;28;20252;-79
2023/08/14 03:11:16;;;;;;;4.57;3.40;;;;;;;20.72;91.65;95606.06;5020394;28;20190;-80
2023/08/14 03:13:41;;;;;;;3.92;3.55;;;;;;;20.69;92.12;95603.84;5012243;28;20190;-79
2023/08/14 03:16:06;;;;;;;4.93;4.28;;;;;;;20.75;91.38;95609.06;5027701;28;20260;-80
2023/08/14 03:18:32;;;;;;;4.22;3.78;;;;;;;20.55;92.46;95610.97;5030804;28;20237;-81
2023/08/14 03:20:57;;;;;;;4.65;3.95;;;;;;;20.55;92.49;95613.63;5029622;28;20178;-80
2023/08/14 03:23:22;;;;;;;4.47;3.63;;;;;;;20.71;91.47;95609.72;5029840;28;20224;-79
2023/08/14 03:25:48;;;;;;;4.50;4.10;;;;;;;20.74;91.25;95611.91;5022914;28;20202;-80
2023/08/14 03:28:13;;;;;;;3.55;3.25;;;;;;;20.72;90.81;95621.88;5011960;28;20193;-79
2023/08/14 03:30:42;;;;;;;5.18;4.20;;;;;;;20.52;92.73;95617.50;5019799;28;20696;-79
2023/08/14 03:33:07;;;;;;;4.18;3.80;;;;;;;20.40;94.02;95627.00;4999925;28;20186;-80
2023/08/14 03:35:33;;;;;;;5.35;4.07;;;;;;;20.34;93.88;95622.56;5013700;28;20207;-79
2023/08/14 03:37:58;;;;;;;4.65;4.13;;;;;;;20.43;93.41;95634.56;4995124;28;20217;-79
2023/08/14 03:40:23;;;;;;;4.97;4.32;;;;;;;20.31;95.24;95633.53;5011738;28;20187;-80
2023/08/14 03:42:49;;;;;;;6.30;4.55;;;;;;;20.44;94.21;95627.44;5014379;28;20183;-79
2023/08/14 03:45:14;;;;;;;4.35;3.97;;;;;;;20.28;93.56;95624.19;5016117;28;20663;-79
2023/08/14 03:47:40;;;;;;;4.88;3.63;;;;;;;20.36;92.32;95623.19;5018651;28;21028;-80
2023/08/14 03:50:05;;;;;;;3.75;3.45;;;;;;;20.35;91.18;95624.19;5004801;28;20186;-80
2023/08/14 03:52:31;;;;;;;4.05;3.65;;;;;;;20.37;90.74;95616.88;5007989;28;20193;-79
2023/08/14 03:54:56;;;;;;;4.30;3.03;;;;;;;20.28;91.10;95620.75;5026147;28;20308;-81
2023/08/14 03:57:21;;;;;;;3.58;3.00;;;;;;;20.19;91.14;95625.44;5013953;28;20206;-79
2023/08/14 03:59:47;;;;;;;4.25;3.22;;;;;;;20.06;92.68;95630.75;5032562;28;20182;-79
2023/08/14 04:02:12;;;;;;;4.32;3.67;;;;;;;20.14;92.35;95637.59;5022664;28;20217;-79
2023/08/14 04:04:37;;;;;;;3.47;3.15;;;;;;;20.22;91.12;95622.38;5025059;28;20232;-79
2023/08/14 04:07:03;;;;;;;3.30;3.00;;;;;;;20.30;90.00;95621.34;5015595;28;20211;-78
2023/08/14 04:09:28;;;;;;;3.60;3.30;;;;;;;20.29;89.70;95622.38;5023861;28;20553;-81
2023/08/14 04:11:53;;;;;;;3.22;2.92;;;;;;;20.23;89.53;95628.47;5019341;28;20630;-78
2023/08/14 04:14:18;;;;;;;4.18;3.38;;;;;;;20.18;89.43;95631.72;5018509;28;20190;-79
2023/08/14 04:16:44;;;;;;;3.22;2.90;;;;;;;20.18;88.26;95634.38;5014281;28;20211;-78
2023/08/14 04:19:15;;;;;;;4.00;3.17;;;;;;;20.21;87.95;95639.22;5015643;28;20191;-79
2023/08/14 04:21:41;;;;;;;3.60;2.75;;;;;;;20.07;88.95;95641.06;5017941;28;20179;-80
2023/08/14 04:24:07;;;;;;;3.17;2.88;;;;;;;20.09;89.12;95646.13;5019887;28;20273;-81
2023/08/14 04:26:33;;;;;;;2.95;2.75;;;;;;;20.08;89.02;95649.78;5023528;28;20191;-80
2023/08/14 04:28:58;;;;;;;4.30;2.80;;;;;;;20.24;88.28;95632.75;5025716;28;20201;-78
2023/08/14 04:31:23;;;;;;;2.97;2.70;;;;;;;20.25;87.67;95637.81;5029227;28;20294;-79
2023/08/14 04:33:48;;;;;;;2.95;2.75;;;;;;;20.30;88.22;95631.91;5016523;28;20193;-80
2023/08/14 04:36:14;;;;;;;3.00;2.80;;;;;;;20.32;88.48;95632.53;5032916;28;20214;-79
2023/08/14 04:38:39;;;;;;;3.80;3.05;;;;;;;20.26;89.18;95628.88;5026185;28;20190;-79
2023/08/14 04:41:04;;;;;;;3.97;3.65;;;;;;;20.32;89.44;95629.91;5015621;28;20218;-80
2023/08/14 04:43:31;;;;;;;3.33;3.08;;;;;;;20.14;90.13;95619.16;5027031;28;20184;-79
2023/08/14 04:45:57;;;;;;;3.60;3.30;;;;;;;20.22;90.05;95613.66;5023692;28;20194;-81
2023/08/14 04:48:22;;;;;;;4.93;3.10;;;;;;;20.23;90.10;95616.13;5015539;28;20183;-79
2023/08/14 04:50:48;;;;;;;3.95;3.40;;;;;;;20.26;90.22;95620.16;5011329;28;20564;-79
2023/08/14 04:53:13;;;;;;;4.75;3.28;;;;;;;20.31;90.38;95617.69;5030055;28;20233;-79
2023/08/14 04:55:38;;;;;;;4.15;3.33;;;;;;;20.41;89.78;95606.72;5024929;28;20225;-79
2023/08/14 04:58:03;;;;;;;4.00;3.45;;;;;;;20.46;89.04;95615.66;5030984;28;20675;-80
2023/08/14 05:00:29;;;;;;;4.95;3.20;;;;;;;20.60;88.20;95608.53;5021126;28;20187;-81
2023/08/14 05:02:54;;;;;;;4.22;3.22;;;;;;;20.75;87.88;95606.44;5009614;28;20198;-79
2023/08/14 05:05:19;;;;;;;3.97;3.28;;;;;;;20.77;87.10;95607.06;5014186;28;20253;-80
2023/08/14 05:07:45;;;;;;;3.42;3.13;;;;;;;20.80;87.39;95611.91;5013248;28;20211;-78
2023/08/14 05:10:10;;;;;;;3.55;2.88;;;;;;;21.39;84.32;95610.00;5005661;28;20197;-79
2023/08/14 05:12:36;;;;;;;3.58;3.28;;;;;;;21.81;81.60;95608.47;5011081;28;20201;-79
2023/08/14 05:15:01;;;;;;;5.25;2.95;;;;;;;21.74;81.07;95603.25;5021781;28;20203;-81
2023/08/14 05:17:27;;;;;;;6.00;3.53;;;;;;;21.58;82.13;95609.06;5013088;28;20230;-79
2023/08/14 05:19:52;;;;;;;3.55;2.95;;;;;;;21.37;83.02;95601.47;5009208;28;20281;-78
2023/08/14 05:22:19;;;;;;;3.35;3.00;;;;;;;21.38;83.49;95603.91;5014608;28;20195;-81
2023/08/14 05:24:45;;;;;;;3.40;3.10;;;;;;;21.46;82.68;95605.47;5012935;28;20595;-82
2023/08/14 05:27:10;;;;;;;4.40;3.13;;;;;;;21.38;83.04;95601.28;5019705;28;20217;-79
2023/08/14 05:29:35;;;;;;;3.45;3.15;;;;;;;21.56;82.28;95605.81;5019094;28;20597;-80
2023/08/14 05:32:00;;;;;;;2.90;2.70;;;;;;;21.34;82.63;95607.19;4999272;28;20349;-80
2023/08/14 05:34:26;;;;;;;3.10;2.90;;;;;;;21.63;81.76;95603.13;5014907;28;20191;-80
2023/08/14 05:36:51;;;;;;;2.78;2.55;;;;;;;21.77;79.78;95591.44;4998397;28;20223;-78
2023/08/14 05:39:18;;;;;;;2.88;2.67;;;;;;;21.80;80.06;95596.28;5000333;28;20280;-79
2023/08/14 05:41:43;;;;;;;2.50;2.30;;;;;;;21.83;79.54;95592.41;5009728;28;20266;-80
2023/08/14 05:44:09;;;;;;;2.50;2.25;;;;;;;21.74;78.30;95582.09;5022945;28;20303;-79
2023/08/14 05:46:34;;;;;;;2.35;2.15;;;;;;;21.80;76.63;95585.69;5024490;28;20199;-80
2023/08/14 05:49:00;;;;;;;2.95;2.15;;;;;;;21.53;78.03;95574.53;5027503;28;20572;-81
2023/08/14 05:51:25;;;;;;;2.30;2.10;;;;;;;21.66;78.16;95576.28;5023817;28;20191;-79
2023/08/14 05:53:50;;;;;;;5.07;2.70;;;;;;;21.71;78.04;95564.00;5014320;28;20195;-79
2023/08/14 05:56:16;;;;;;;3.13;2.30;;;;;;;22.01;77.02;95571.28;5017320;28;20606;-80
2023/08/14 05:58:41;;;;;;;3.72;2.42;;;;;;;22.05;77.54;95577.75;5029959;28;20190;-79
2023/08/14 06:01:06;;;;;;;3.13;2.83;;;;;;;21.71;79.38;95577.22;5024663;28;20179;-82
2023/08/14 06:03:32;;;;;;;6.38;2.53;;;;;;;21.85;78.64;95590.34;5023417;28;20186;-80
2023/08/14 06:05:57;;;;;;;3.53;2.60;;;;;;;22.03;77.92;95587.75;5020557;28;20665;-80
2023/08/14 06:08:22;;;;;;;3.15;2.72;;;;;;;22.14;77.56;95580.94;5026711;28;20185;-80
2023/08/14 06:10:47;;;;;;;3.15;2.85;;;;;;;22.41;77.38;95581.47;5028860;28;20178;-79
2023/08/14 06:13:13;;;;;;;4.53;2.90;;;;;;;22.38;76.60;95589.88;5030753;28;20281;-79
2023/08/14 06:15:38;;;;;;;2.95;2.22;;;;;;;22.35;75.99;95583.16;5028516;28;20206;-81
2023/08/14 06:18:04;;;;;;;3.05;2.80;;;;;;;22.61;75.34;95572.28;5017880;28;20200;-79
2023/08/14 06:20:29;;;;;;;2.78;2.20;;;;;;;22.38;75.18;95585.38;5024824;28;20195;-78
2023/08/14 06:22:54;;;;;;;4.43;2.40;;;;;;;22.65;74.84;95587.72;5010079;28;20278;-79
2023/08/14 06:25:20;;;;;;;2.35;2.15;;;;;;;23.33;71.10;95590.94;5044085;28;20245;-80
2023/08/14 06:27:46;;;;;;;2.60;1.88;;;;;;;23.16;70.91;95579.38;5026883;28;20206;-78
2023/08/14 06:30:12;;;;;;;2.05;1.83;;;;;;;23.30;70.43;95588.72;5022471;28;20660;-79
2023/08/14 06:32:37;;;;;;;2.15;1.95;;;;;;;23.22;69.67;95586.41;5014285;28;20247;-80
2023/08/14 06:35:04;;;;;;;2.17;1.98;;;;;;;23.34;69.88;95586.44;5019711;28;20207;-81
2023/08/14 06:37:29;;;;;;;2.22;2.03;;;;;;;23.57;69.78;95590.97;5007413;28;20203;-82
2023/08/14 06:39:54;;;;;;;2.20;1.77;;;;;;;24.61;66.08;95597.41;5034441;28;20190;-82
2023/08/14 06:42:20;;;;;;;2.22;1.48;;;;;;;26.87;57.51;95614.25;5008152;28;20194;-83
2023/08/14 06:44:45;;;;;;;1.90;1.63;;;;;;;28.54;51.24;95608.88;5010342;28;20611;-83
2023/08/14 06:47:10;;;;;;;4.20;1.90;;;;;;;29.13;48.72;95619.28;5026378;28;20549;-82
2023/08/14 06:49:36;;;;;;;3.08;1.50;;;;;;;30.13;46.22;95617.88;5028249;28;20191;-83
2023/08/14 06:52:01;;;;;;;2.35;2.10;;;;;;;30.28;44.66;95606.34;5018858;28;20205;-82
2023/08/14 06:54:27;;;;;;;3.55;1.95;;;;;;;29.28;47.22;95604.09;5018421;28;20249;-83
2023/08/14 06:56:52;;;;;;;2.08;1.90;;;;;;;29.34;47.67;95605.72;5025750;28;20206;-84
2023/08/14 06:59:17;;;;;;;3.05;2.00;;;;;;;29.61;46.71;95600.19;5043663;28;20202;-83
2023/08/14 07:01:43;;;;;;;2.78;2.20;;;;;;;30.90;43.96;95596.28;5006033;28;20195;-83
2023/08/14 07:04:08;;;;;;;3.53;2.10;;;;;;;30.56;44.77;95594.22;5020128;28;20252;-83
2023/08/14 07:06:34;;;;;;;2.60;2.40;;;;;;;32.39;40.90;95587.78;5024724;28;20238;-83
2023/08/14 07:09:00;;;;;;;3.25;2.33;;;;;;;31.59;43.31;95590.03;5008773;28;20336;-83
2023/08/14 07:11:25;;;;;;;2.25;2.08;;;;;;;31.11;43.29;95591.66;5010580;28;20190;-82
2023/08/14 07:13:51;;;;;;;3.28;2.20;;;;;;;30.44;45.46;95591.84;5014248;28;20600;-82
2023/08/14 07:16:16;;;;;;;3.85;2.30;;;;;;;31.87;42.76;95593.06;5027745;28;20272;-82
2023/08/14 07:18:41;;;;;;;2.90;2.58;;;;;;;30.39;47.02;95588.38;5006426;28;20206;-82
2023/08/14 07:21:07;;;;;;;2.45;2.25;;;;;;;30.93;44.17;95593.88;5025051;28;20190;-83
2023/08/14 07:23:33;;;;;;;2.60;2.40;;;;;;;30.15;45.99;95591.63;5013289;28;20247;-83
2023/08/14 07:25:59;;;;;;;2.83;2.63;;;;;;;29.18;48.92;95589.91;5011933;28;20194;-83
2023/08/14 07:28:25;;;;;;;4.25;2.42;;;;;;;28.98;50.10;95587.97;5017299;28;20192;-83
2023/08/14 07:30:50;;;;;;;5.25;2.88;;;;;;;28.33;50.99;95590.03;5014526;28;20186;-85
2023/08/14 07:33:15;;;;;;;3.95;2.50;;;;;;;28.35;51.86;95581.75;5006694;28;20178;-82
2023/08/14 07:35:41;;;;;;;3.50;2.50;;;;;;;28.01;53.33;95586.59;5021851;28;20217;-82
2023/08/14 07:38:07;;;;;;;3.13;2.60;;;;;;;27.92;55.00;95586.28;5017469;28;20977;-80
2023/08/14 07:40:33;;;;;;;4.18;3.05;;;;;;;27.86;54.87;95585.44;5018424;28;20566;-82
2023/08/14 07:43:00;;;;;;;4.45;2.80;;;;;;;27.44;56.55;95581.81;5019910;28;20185;-81
2023/08/14 07:45:25;;;;;;;3.03;2.72;;;;;;;27.71;55.64;95576.47;5018044;28;20237;-81
2023/08/14 07:47:50;;;;;;;3.50;2.60;;;;;;;27.15;55.84;95584.75;5034527;28;20211;-81
2023/08/14 07:50:16;;;;;;;4.68;2.80;;;;;;;27.04;56.98;95583.03;5037231;28;20245;-82
2023/08/14 07:52:41;;;;;;;3.15;2.67;;;;;;;27.25;57.27;95581.38;5024572;28;20565;-82
2023/08/14 07:55:10;;;;;;;4.20;2.63;;;;;;;27.01;57.91;95594.13;5025749;28;20298;-82
2023/08/14 07:57:35;;;;;;;3.65;2.70;;;;;;;26.99;57.00;95606.91;5014738;28;20233;-82
2023/08/14 08:00:00;;;;;;;3.13;2.25;;;;;;;27.09;57.59;95594.53;5014419;28;20179;-82
2023/08/14 08:02:26;;;;;;;2.72;2.50;;;;;;;26.74;57.88;95605.53;5019092;28;20179;-83
2023/08/14 08:04:51;;;;;;;3.97;2.83;;;;;;;26.75;58.74;95609.81;5016541;28;20198;-82
2023/08/14 08:07:16;;;;;;;3.95;2.72;;;;;;;27.23;57.79;95608.28;5028071;28;20706;-82
2023/08/14 08:09:42;;;;;;;3.60;2.60;;;;;;;26.73;58.19;95619.13;5029056;28;20551;-81
2023/08/14 08:12:07;;;;;;;2.60;2.40;;;;;;;26.77;59.04;95615.72;5025135;28;20194;-83
2023/08/14 08:14:34;;;;;;;6.57;3.00;;;;;;;26.86;58.23;95623.25;5017619;28;20190;-84
2023/08/14 08:16:59;;;;;;;3.15;2.83;;;;;;;27.18;57.06;95624.22;5028690;28;20245;-82
2023/08/14 08:19:24;;;;;;;3.53;3.03;;;;;;;26.93;58.06;95634.53;5027333;28;20195;-82
2023/08/14 08:21:50;;;;;;;3.30;2.97;;;;;;;27.23;56.15;95632.28;5017754;28;20691;-82
2023/08/14 08:24:15;;;;;;;3.20;2.90;;;;;;;27.60;55.88;95640.38;5028298;28;20178;-83
2023/08/14 08:26:40;;;;;;;3.60;3.10;;;;;;;28.18;54.72;95640.63;5013702;28;20203;-83
2023/08/14 08:29:05;;;;;;;3.38;2.85;;;;;;;28.25;53.79;95637.75;5012870;28;20233;-82
2023/08/14 08:31:32;;;;;;;2.83;2.50;;;;;;;28.61;52.48;95644.16;5012913;28;20206;-80
2023/08/14 08:33:57;;;;;;;3.13;2.75;;;;;;;28.81;52.93;95638.94;5023782;28;21023;-83
2023/08/14 08:36:23;;;;;;;3.45;2.80;;;;;;;28.77;52.27;95637.81;5021342;28;20211;-83
2023/08/14 08:38:48;;;;;;;4.57;3.13;;;;;;;29.00;52.34;95637.44;5024480;28;20183;-83
2023/08/14 08:41:17;;;;;;;3.78;3.00;;;;;;;28.69;52.58;95643.66;5015392;28;20541;-83
2023/08/14 08:43:42;;;;;;;2.38;2.17;;;;;;;28.99;50.74;95641.19;5011547;28;20179;-83
2023/08/14 08:46:10;;;;;;;3.78;3.17;;;;;;;29.24;48.29;95640.47;5019775;28;20205;-84
2023/08/14 08:48:42;;;;;;;3.22;2.92;;;;;;;29.54;48.20;95639.75;5017137;28;20233;-83
2023/08/14 08:51:08;;;;;;;2.63;2.42;;;;;;;29.76;46.71;95634.16;5021325;28;20249;-83
2023/08/14 08:53:34;;;;;;;3.05;2.75;;;;;;;30.04;46.20;95635.53;5020266;28;20178;-83
2023/08/14 08:55:59;;;;;;;2.90;2.60;;;;;;;28.88;52.08;95647.50;5024368;28;20210;-82
2023/08/14 08:58:25;;;;;;;4.38;2.83;;;;;;;29.13;52.93;95646.03;5005467;28;20297;-82
2023/08/14 09:00:52;;;;;;;4.22;2.60;;;;;;;29.52;51.87;95646.47;5004384;28;20290;-82
2023/08/14 09:03:17;;;;;;;3.30;2.88;;;;;;;29.32;51.84;95645.28;5017945;28;20194;-82
2023/08/14 09:05:42;;;;;;;2.63;2.42;;;;;;;29.24;52.18;95643.16;5019171;28;20198;-82
2023/08/14 09:08:10;;;;;;;3.50;3.20;;;;;;;29.29;52.07;95651.16;5024245;28;20236;-81
2023/08/14 09:10:36;;;;;;;2.60;2.40;;;;;;;29.29;52.30;95645.81;5021771;28;20253;-82
2023/08/14 09:13:01;;;;;;;5.15;3.20;;;;;;;29.02;52.93;95645.19;5014033;28;20718;-82
2023/08/14 09:15:27;;;;;;;3.72;2.97;;;;;;;29.21;52.42;95648.19;5028976;28;20198;-81
2023/08/14 09:17:53;;;;;;;3.13;2.63;;;;;;;28.67;52.89;95637.78;5020173;28;20207;-81
2023/08/14 09:20:19;;;;;;;3.40;2.85;;;;;;;28.79;54.10;95638.38;5018372;28;20190;-83
2023/08/14 09:22:45;;;;;;;3.20;2.90;;;;;;;28.95;53.76;95634.72;5029902;28;20290;-82
2023/08/14 09:25:10;;;;;;;5.53;2.70;;;;;;;29.38;53.77;95638.09;5023192;28;20660;-83
2023/08/14 09:27:36;;;;;;;3.15;2.70;;;;;;;29.11;53.33;95627.56;5019895;28;20214;-82
2023/08/14 09:30:01;;;;;;;3.10;2.80;;;;;;;29.51;52.64;95632.28;5036714;28;20182;-83
2023/08/14 09:32:26;;;;;;;3.38;3.08;;;;;;;29.14;52.70;95628.91;5025559;28;20194;-82
2023/08/14 09:35:02;;;;;;;3.15;2.90;;;;;;;29.58;51.66;95640.03;5027360;28;20179;-83
2023/08/14 09:37:28;;;;;;;3.30;3.00;;;;;;;29.85;51.55;95637.13;5032931;28;20350;-83
2023/08/14 09:40:13;;;;;;;3.30;3.00;;;;;;;30.10;51.61;95642.50;5024201;28;20202;-82
2023/08/14 09:42:38;;;;;;;3.35;3.00;;;;;;;30.57;49.85;95640.56;5023990;28;20191;-82
2023/08/14 09:45:04;;;;;;;3.50;2.80;;;;;;;30.73;49.34;95645.66;5024208;28;20541;-81
2023/08/14 09:47:30;;;;;;;3.80;3.30;;;;;;;30.85;47.98;95636.53;5033418;28;20232;-82
2023/08/14 09:49:56;;;;;;;3.58;3.05;;;;;;;29.48;51.02;95634.63;5038215;28;20229;-81
2023/08/14 09:52:23;;;;;;;3.78;3.03;;;;;;;29.51;51.19;95642.97;5029218;28;20198;-82
2023/08/14 09:54:49;;;;;;;3.45;3.10;;;;;;;29.06;51.40;95636.38;5029677;28;20182;-82
2023/08/14 09:57:15;;;;;;;3.42;3.13;;;;;;;29.66;51.53;95633.34;5037959;28;20254;-83
2023/08/14 09:59:40;;;;;;;3.90;3.20;;;;;;;30.03;50.61;95641.94;5023740;28;20249;-82
2023/08/14 10:02:11;;;;;;;4.05;3.30;;;;;;;30.17;51.50;95644.94;5046776;28;20203;-82
2023/08/14 10:04:37;;;;;;;3.58;3.33;;;;;;;30.01;49.64;95640.59;5020775;28;20206;-83
2023/08/14 10:07:03;;;;;;;6.35;3.35;;;;;;;29.33;51.69;95636.22;5026262;28;20882;-83
2023/08/14 10:09:30;;;;;;;3.70;3.42;;;;;;;30.01;51.50;95630.69;5035408;28;20194;-83
2023/08/14 10:12:02;;;;;;;5.53;3.75;;;;;;;30.16;51.37;95638.75;5019762;28;20205;-83
2023/08/14 10:14:28;;;;;;;5.30;3.38;;;;;;;30.21;50.86;95635.28;5015943;28;20201;-82
2023/08/14 10:16:55;;;;;;;3.70;3.35;;;;;;;29.76;50.59;95636.84;5023232;28;20813;-82
2023/08/14 10:19:23;;;;;;;5.10;3.10;;;;;;;29.48;51.31;95638.09;5029440;28;20194;-83
2023/08/14 10:21:51;;;;;;;4.18;3.42;;;;;;;29.91;50.72;95641.41;5031804;28;20285;-81
2023/08/14 10:24:17;;;;;;;5.68;3.53;;;;;;;30.30;51.30;95639.00;5019201;28;20178;-82
2023/08/14 10:26:44;;;;;;;4.68;3.75;;;;;;;30.34;51.06;95637.41;5018152;28;20264;-82
2023/08/14 10:29:09;;;;;;;16.77;4.47;;;;;;;30.21;50.06;95645.19;5009868;28;20256;-82
2023/08/14 10:31:34;;;;;;;4.57;3.67;;;;;;;30.61;48.41;95644.34;5016426;28;20191;-83
2023/08/14 10:34:00;;;;;;;5.03;3.50;;;;;;;30.78;47.67;95650.22;5029572;28;20281;-83
2023/08/14 10:36:27;;;;;;;4.68;3.85;;;;;;;30.63;50.04;95650.22;5026296;28;20216;-82
2023/08/14 10:38:52;;;;;;;4.32;3.35;;;;;;;30.84;50.43;95653.69;5027351;28;20596;-83
2023/08/14 10:41:21;;;;;;;5.10;3.55;;;;;;;30.52;48.81;95657.47;5017942;28;20273;-84
2023/08/14 10:43:49;;;;;;;3.75;3.10;;;;;;;30.28;48.29;95654.56;5016641;28;20178;-83
2023/08/14 10:46:15;;;;;;;4.55;3.60;;;;;;;30.68;47.83;95655.59;5016045;28;20198;-84
2023/08/14 10:48:41;;;;;;;6.00;3.67;;;;;;;30.61;47.58;95658.53;5018670;28;20540;-84
2023/08/14 10:51:08;;;;;;;4.32;3.53;;;;;;;30.71;49.01;95660.41;5014880;28;20202;-85
2023/08/14 10:53:34;;;;;;;3.80;3.45;;;;;;;31.00;48.63;95665.94;5013973;28;20265;-83
2023/08/14 10:56:00;;;;;;;4.15;3.10;;;;;;;30.85;47.99;95666.81;5016076;28;20194;-84
2023/08/14 10:58:29;;;;;;;4.95;3.10;;;;;;;30.28;48.37;95667.94;5014014;28;20197;-85
2023/08/14 11:00:57;;;;;;;5.78;3.25;;;;;;;30.11;48.72;95676.25;5029631;28;20739;-84
2023/08/14 11:03:23;;;;;;;4.57;3.10;;;;;;;29.83;49.20;95666.03;5030651;28;20310;-83
2023/08/14 11:05:49;;;;;;;7.15;3.30;;;;;;;29.68;50.24;95664.13;5006649;28;20852;-84
2023/08/14 11:08:15;;;;;;;4.60;3.35;;;;;;;29.60;51.71;95657.44;5012137;28;20225;-83
2023/08/14 11:10:41;;;;;;;4.70;3.35;;;;;;;29.08;52.61;95664.75;5018072;28;20191;-85
2023/08/14 11:13:08;;;;;;;4.60;3.33;;;;;;;29.19;52.21;95658.38;5030592;28;20189;-84
2023/08/14 11:15:38;;;;;;;3.97;3.60;;;;;;;28.72;54.26;95641.28;5023287;28;20802;-84
2023/08/14 11:18:10;;;;;;;3.70;3.40;;;;;;;28.58;54.45;95648.16;5006223;28;20684;-84
2023/08/14 11:20:43;;;;;;;4.47;4.00;;;;;;;28.66;54.79;95653.00;5026941;28;20187;-85
2023/08/14 11:23:09;;;;;;;4.13;3.78;;;;;;;28.99;54.17;95651.06;5015264;28;20182;-81
2023/08/14 11:25:34;;;;;;;4.55;3.40;;;;;;;29.09;53.75;95655.66;5016626;28;20286;-80
2023/08/14 11:28:00;;;;;;;5.63;3.55;;;;;;;28.73;53.16;95648.25;5018745;28;20293;-79